Time;durP1;ratioP1;P1;durP2;ratioP2;P2;SDS_P1;SDS_P2;PMS_P1;PMS_P2;Temp;Humidity;BMP_temperature;BMP_pressure;BME280_temperature;BME280_humidity;BME280_pressure;Samples;Min_cycle;Max_cycle;Signal;HPM_P1;HPM_P2
2020/12/22 00:00:08;;;;;;;2.30;2.20;;;;;;;7.56;94.08;99759.38;5052539;28;20265;-73
2020/12/22 00:02:44;;;;;;;2.97;2.77;;;;;;;7.58;94.50;99754.44;5053774;28;20563;-72
2020/12/22 00:05:11;;;;;;;3.57;3.27;;;;;;;7.57;94.86;99758.25;5053678;28;20171;-73
2020/12/22 00:07:37;;;;;;;2.93;2.13;;;;;;;7.60;94.41;99744.03;5052350;28;20179;-73
2020/12/22 00:10:08;;;;;;;2.40;2.20;;;;;;;7.57;94.50;99731.88;5053580;28;20569;-73
2020/12/22 00:12:34;;;;;;;1.47;1.37;;;;;;;7.59;95.06;99740.53;5053546;28;20234;-73
2020/12/22 00:15:00;;;;;;;2.10;2.00;;;;;;;7.62;95.05;99734.47;5053632;28;20167;-73
2020/12/22 00:17:26;;;;;;;1.37;1.33;;;;;;;7.66;94.83;99734.63;5053151;28;20531;-78
2020/12/22 00:19:52;;;;;;;1.83;1.73;;;;;;;7.67;94.63;99722.69;5053250;28;20167;-73
2020/12/22 00:22:17;;;;;;;1.53;1.33;;;;;;;7.71;94.89;99720.94;5053437;28;20221;-73
2020/12/22 00:24:42;;;;;;;1.93;1.83;;;;;;;7.73;94.82;99713.28;5053169;28;20183;-73
2020/12/22 00:27:08;;;;;;;1.47;1.20;;;;;;;7.74;94.78;99709.44;5051617;28;20167;-73
2020/12/22 00:29:34;;;;;;;1.70;1.60;;;;;;;7.74;94.88;99704.81;5053247;28;20249;-73
2020/12/22 00:32:00;;;;;;;0.57;0.57;;;;;;;7.74;94.64;99704.81;5053272;28;20266;-73
2020/12/22 00:34:32;;;;;;;0.47;0.47;;;;;;;7.72;94.71;99701.59;5053026;28;20229;-72
2020/12/22 00:37:01;;;;;;;1.73;1.63;;;;;;;7.66;94.61;99696.56;5052987;28;20229;-73
2020/12/22 00:39:27;;;;;;;1.47;1.37;;;;;;;7.70;95.66;99689.44;5053059;28;20388;-73
2020/12/22 00:41:53;;;;;;;1.67;1.40;;;;;;;7.66;95.39;99686.50;5052961;28;20608;-73
2020/12/22 00:44:19;;;;;;;1.50;1.37;;;;;;;7.74;95.13;99690.41;5053124;28;20183;-73
2020/12/22 00:46:45;;;;;;;2.03;1.57;;;;;;;7.71;95.26;99691.84;5053388;28;20172;-73
2020/12/22 00:49:10;;;;;;;1.80;1.57;;;;;;;7.70;95.26;99697.59;5052831;28;20199;-74
2020/12/22 00:51:35;;;;;;;1.50;1.40;;;;;;;7.78;95.29;99688.66;5053039;28;20226;-73
2020/12/22 00:54:01;;;;;;;1.20;1.10;;;;;;;7.84;95.29;99692.88;5052790;28;20612;-73
2020/12/22 00:56:26;;;;;;;0.83;0.83;;;;;;;7.81;94.96;99688.06;5052729;28;20179;-73
2020/12/22 00:58:51;;;;;;;1.00;1.00;;;;;;;7.89;95.11;99681.84;5052973;28;20328;-73
2020/12/22 01:01:17;;;;;;;1.47;1.37;;;;;;;7.95;94.69;99693.38;5053051;28;20535;-73
2020/12/22 01:03:42;;;;;;;0.33;0.30;;;;;;;8.00;95.13;99682.41;5052287;28;20246;-73
2020/12/22 01:06:07;;;;;;;0.60;0.60;;;;;;;8.07;94.91;99678.09;5052423;28;20175;-73
2020/12/22 01:08:33;;;;;;;0.37;0.37;;;;;;;8.14;94.40;99683.09;5052393;28;20187;-73
2020/12/22 01:10:59;;;;;;;0.60;0.60;;;;;;;8.15;94.43;99681.19;5052525;28;20595;-73
2020/12/22 01:13:24;;;;;;;1.10;0.70;;;;;;;8.19;94.43;99685.66;5053322;28;20767;-73
2020/12/22 01:15:50;;;;;;;0.43;0.43;;;;;;;8.26;94.19;99693.41;5060419;28;20203;-73
2020/12/22 01:18:15;;;;;;;0.47;0.47;;;;;;;8.32;94.33;99686.69;5054316;28;20214;-73
2020/12/22 01:20:41;;;;;;;0.30;0.30;;;;;;;8.41;93.59;99690.28;5053328;28;20194;-73
2020/12/22 01:23:06;;;;;;;0.57;0.50;;;;;;;8.43;93.62;99688.03;5051211;28;20183;-74
2020/12/22 01:25:31;;;;;;;0.60;0.60;;;;;;;8.44;93.61;99695.09;5051481;28;20176;-73
2020/12/22 01:27:56;;;;;;;0.60;0.60;;;;;;;8.47;93.46;99697.16;5052457;28;20185;-73
2020/12/22 01:30:22;;;;;;;0.90;0.90;;;;;;;8.49;93.81;99696.84;5052342;28;20732;-73
2020/12/22 01:32:48;;;;;;;0.83;0.83;;;;;;;8.44;93.19;99684.19;5052114;28;20190;-73
2020/12/22 01:35:14;;;;;;;0.80;0.80;;;;;;;8.47;93.66;99683.56;5052252;28;20175;-73
2020/12/22 01:37:39;;;;;;;0.50;0.50;;;;;;;8.45;93.89;99665.94;5052077;28;20201;-73
2020/12/22 01:40:04;;;;;;;0.10;0.10;;;;;;;8.45;94.19;99666.75;5052156;28;20167;-72
2020/12/22 01:42:30;;;;;;;0.47;0.47;;;;;;;8.45;94.46;99663.22;5051940;28;20225;-73
2020/12/22 01:44:55;;;;;;;0.97;0.47;;;;;;;8.49;94.22;99653.28;5052344;28;20657;-73
2020/12/22 01:47:22;;;;;;;0.83;0.70;;;;;;;8.50;94.36;99649.44;5050469;28;20621;-73
2020/12/22 01:49:47;;;;;;;0.57;0.57;;;;;;;8.51;93.98;99646.41;5051885;28;20607;-73
2020/12/22 01:52:13;;;;;;;1.10;0.80;;;;;;;8.45;94.17;99636.00;5051915;28;20183;-72
2020/12/22 01:54:38;;;;;;;0.30;0.30;;;;;;;8.51;94.28;99635.53;5051813;28;20265;-73
2020/12/22 01:57:11;;;;;;;0.17;0.13;;;;;;;8.55;93.66;99631.06;5051659;28;20258;-73
2020/12/22 01:59:37;;;;;;;0.50;0.50;;;;;;;8.55;93.76;99625.63;5051602;28;20218;-73
2020/12/22 02:02:03;;;;;;;0.30;0.30;;;;;;;8.60;93.73;99621.94;5051490;28;20725;-73
2020/12/22 02:04:29;;;;;;;0.20;0.20;;;;;;;8.64;94.12;99625.63;5051926;28;20175;-73
2020/12/22 02:06:55;;;;;;;0.30;0.30;;;;;;;8.64;93.75;99625.63;5051319;28;20171;-73
2020/12/22 02:09:21;;;;;;;3.80;0.40;;;;;;;8.70;93.75;99629.81;5051465;28;20175;-74
2020/12/22 02:11:46;;;;;;;0.10;0.10;;;;;;;8.76;93.27;99616.81;5051459;28;20232;-73
2020/12/22 02:14:11;;;;;;;0.30;0.30;;;;;;;8.79;93.28;99616.97;5051372;28;20621;-73
2020/12/22 02:16:38;;;;;;;0.40;0.30;;;;;;;8.83;93.57;99609.78;5050491;28;20175;-74
2020/12/22 02:19:04;;;;;;;0.10;0.10;;;;;;;8.88;93.18;99620.53;5051162;28;20207;-73
2020/12/22 02:21:30;;;;;;;0.30;0.30;;;;;;;8.95;93.02;99612.66;5051810;28;20167;-73
2020/12/22 02:23:55;;;;;;;0.37;0.37;;;;;;;9.02;92.99;99605.94;5051373;28;20539;-72
2020/12/22 02:26:24;;;;;;;0.07;0.00;;;;;;;9.13;92.63;99601.78;5050954;28;20697;-73
2020/12/22 02:28:51;;;;;;;0.30;0.30;;;;;;;9.14;92.42;99592.47;5049877;28;20240;-73
2020/12/22 02:31:17;;;;;;;0.30;0.30;;;;;;;9.18;92.27;99588.75;5050859;28;20198;-72
2020/12/22 02:33:44;;;;;;;0.60;0.53;;;;;;;9.20;92.36;99585.72;5051099;28;20175;-73
2020/12/22 02:36:10;;;;;;;0.73;0.40;;;;;;;9.23;92.92;99598.69;5051046;28;20543;-73
2020/12/22 02:38:37;;;;;;;0.30;0.30;;;;;;;9.24;92.89;99587.47;5049441;28;20337;-73
2020/12/22 02:41:03;;;;;;;1.00;0.20;;;;;;;9.22;92.72;99573.34;5049567;28;20270;-74
2020/12/22 02:43:28;;;;;;;0.50;0.37;;;;;;;9.24;93.16;99562.13;5051225;28;20306;-74
2020/12/22 02:45:54;;;;;;;0.33;0.33;;;;;;;9.26;92.97;99570.81;5049486;28;20643;-74
2020/12/22 02:48:19;;;;;;;0.30;0.30;;;;;;;9.34;92.72;99556.34;5050504;28;20674;-73
2020/12/22 02:50:44;;;;;;;0.90;0.20;;;;;;;9.37;92.88;99552.16;5050658;28;20650;-73
2020/12/22 02:53:10;;;;;;;0.67;0.30;;;;;;;9.34;93.25;99541.91;5050718;28;20639;-73
2020/12/22 02:55:35;;;;;;;0.13;0.13;;;;;;;9.40;93.27;99538.72;5050711;28;20176;-73
2020/12/22 02:58:00;;;;;;;0.17;0.17;;;;;;;9.44;93.16;99534.19;5050427;28;20264;-73
2020/12/22 03:00:26;;;;;;;0.10;0.10;;;;;;;9.46;92.57;99534.66;5050549;28;20182;-73
2020/12/22 03:02:52;;;;;;;0.20;0.20;;;;;;;9.54;93.04;99524.84;5050550;28;20205;-73
2020/12/22 03:05:18;;;;;;;0.47;0.10;;;;;;;9.56;92.60;99510.91;5049191;28;20179;-74
2020/12/22 03:07:44;;;;;;;0.20;0.20;;;;;;;9.59;92.05;99512.97;5050374;28;20187;-73
2020/12/22 03:10:11;;;;;;;0.30;0.30;;;;;;;9.57;92.29;99517.94;5050570;28;20175;-73
2020/12/22 03:12:37;;;;;;;0.30;0.23;;;;;;;9.59;92.21;99515.69;5050651;28;20183;-74
2020/12/22 03:15:06;;;;;;;0.20;0.20;;;;;;;9.62;92.12;99515.03;5050553;28;20186;-74
2020/12/22 03:17:33;;;;;;;0.60;0.27;;;;;;;9.57;91.92;99512.50;5050372;28;20175;-74
2020/12/22 03:19:58;;;;;;;0.20;0.20;;;;;;;9.65;92.16;99520.63;5050436;28;20704;-74
2020/12/22 03:22:23;;;;;;;0.10;0.10;;;;;;;9.69;92.35;99515.31;5050491;28;20503;-73
2020/12/22 03:24:49;;;;;;;0.20;0.20;;;;;;;9.73;92.27;99497.97;5050437;28;20182;-72
2020/12/22 03:27:14;;;;;;;0.70;0.20;;;;;;;9.72;92.13;99498.31;5051769;28;20304;-73
2020/12/22 03:29:39;;;;;;;0.30;0.30;;;;;;;9.78;92.16;99510.63;5054318;28;20265;-73
2020/12/22 03:32:05;;;;;;;0.10;0.10;;;;;;;9.84;91.92;99514.78;5053803;28;20539;-73
2020/12/22 03:34:31;;;;;;;0.20;0.20;;;;;;;9.83;92.09;99513.94;5054571;28;20191;-72
2020/12/22 03:36:57;;;;;;;0.10;0.10;;;;;;;9.87;92.12;99525.03;5054581;28;20255;-73
2020/12/22 03:39:22;;;;;;;0.30;0.10;;;;;;;9.92;91.92;99522.09;5054219;28;20214;-72
2020/12/22 03:41:47;;;;;;;0.30;0.10;;;;;;;9.95;91.71;99504.25;5054179;28;20175;-72
2020/12/22 03:44:13;;;;;;;0.37;0.20;;;;;;;9.91;92.13;99517.78;5054065;28;20174;-72
2020/12/22 03:46:39;;;;;;;0.10;0.10;;;;;;;9.93;92.23;99510.06;5053913;28;20205;-73
2020/12/22 03:49:04;;;;;;;1.73;1.63;;;;;;;9.88;92.84;99515.72;5054065;28;20658;-73
2020/12/22 03:51:30;;;;;;;0.30;0.30;;;;;;;9.89;92.77;99521.97;5052586;28;20171;-73
2020/12/22 03:53:55;;;;;;;0.00;0.00;;;;;;;9.91;92.75;99512.31;5054069;28;20175;-72
2020/12/22 03:56:20;;;;;;;0.40;0.30;;;;;;;9.90;93.04;99513.44;5053906;28;20163;-73
2020/12/22 03:58:46;;;;;;;0.93;0.30;;;;;;;9.97;92.69;99518.38;5053798;28;20199;-73
2020/12/22 04:01:11;;;;;;;0.40;0.30;;;;;;;9.99;92.92;99518.88;5053931;28;20179;-72
2020/12/22 04:03:36;;;;;;;0.40;0.40;;;;;;;9.97;93.02;99516.44;5053620;28;20171;-73
2020/12/22 04:06:02;;;;;;;0.10;0.10;;;;;;;10.03;93.10;99512.41;5052505;28;20175;-72
2020/12/22 04:08:27;;;;;;;1.97;0.47;;;;;;;9.96;92.87;99506.66;5053588;28;20187;-72
2020/12/22 04:10:54;;;;;;;0.10;0.10;;;;;;;10.04;92.86;99507.75;5053666;28;20179;-72
2020/12/22 04:13:20;;;;;;;1.17;0.20;;;;;;;10.09;92.94;99507.53;5053596;28;20317;-72
2020/12/22 04:15:45;;;;;;;0.67;0.10;;;;;;;10.17;92.53;99509.44;5053567;28;20220;-73
2020/12/22 04:18:11;;;;;;;0.13;0.10;;;;;;;10.15;92.36;99511.69;5053260;28;20195;-72
2020/12/22 04:20:36;;;;;;;0.30;0.10;;;;;;;10.15;92.57;99511.69;5053571;28;20190;-72
2020/12/22 04:23:01;;;;;;;0.10;0.10;;;;;;;10.25;92.60;99524.16;5053454;28;20197;-72
2020/12/22 04:25:27;;;;;;;0.10;0.10;;;;;;;10.25;92.68;99505.06;5053386;28;20175;-73
2020/12/22 04:27:52;;;;;;;0.90;0.20;;;;;;;10.27;92.63;99491.88;5053187;28;20194;-73
2020/12/22 04:30:17;;;;;;;0.20;0.20;;;;;;;10.25;92.66;99503.13;5053392;28;20186;-73
2020/12/22 04:32:43;;;;;;;1.03;0.17;;;;;;;10.24;93.32;99498.00;5053398;28;20202;-73
2020/12/22 04:35:08;;;;;;;3.73;0.20;;;;;;;10.24;93.70;99511.66;5053378;28;20171;-73
2020/12/22 04:37:33;;;;;;;0.03;0.03;;;;;;;10.29;93.37;99506.03;5053150;28;20186;-72
2020/12/22 04:39:59;;;;;;;0.30;0.20;;;;;;;10.26;94.11;99498.47;5052502;28;20689;-73
2020/12/22 04:42:24;;;;;;;0.00;0.00;;;;;;;10.33;94.10;99512.41;5053074;28;20254;-72
2020/12/22 04:44:50;;;;;;;0.10;0.10;;;;;;;10.36;94.27;99504.34;5053095;28;20171;-73
2020/12/22 04:47:17;;;;;;;0.00;0.00;;;;;;;10.37;94.29;99513.31;5051643;28;20189;-72
2020/12/22 04:49:46;;;;;;;0.10;0.10;;;;;;;10.39;94.43;99500.13;5052895;28;20186;-72
2020/12/22 04:52:13;;;;;;;0.30;0.30;;;;;;;10.48;93.93;99508.28;5052936;28;20171;-73
2020/12/22 04:54:39;;;;;;;0.10;0.10;;;;;;;10.49;94.04;99507.94;5051532;28;20255;-71
2020/12/22 04:57:05;;;;;;;0.20;0.10;;;;;;;10.47;93.98;99506.69;5052792;28;20217;-73
2020/12/22 04:59:32;;;;;;;1.30;0.30;;;;;;;10.52;93.93;99515.47;5052589;28;20199;-71
2020/12/22 05:01:58;;;;;;;0.23;0.23;;;;;;;10.52;94.42;99490.88;5051495;28;20182;-72
2020/12/22 05:04:23;;;;;;;0.00;0.00;;;;;;;10.55;93.95;99501.13;5052720;28;20179;-72
2020/12/22 05:06:49;;;;;;;0.10;0.10;;;;;;;10.57;93.73;99496.16;5052451;28;20554;-73
2020/12/22 05:09:14;;;;;;;0.10;0.00;;;;;;;10.61;93.67;99491.63;5052640;28;20228;-72
2020/12/22 05:11:39;;;;;;;0.50;0.10;;;;;;;10.60;93.63;99500.94;5052441;28;20183;-72
2020/12/22 05:14:06;;;;;;;0.10;0.10;;;;;;;10.64;93.49;99490.13;5052549;28;20528;-73
2020/12/22 05:16:38;;;;;;;0.50;0.37;;;;;;;10.62;93.89;99500.59;5052209;28;20266;-72
2020/12/22 05:19:04;;;;;;;0.20;0.10;;;;;;;10.65;93.40;99505.41;5052100;28;20306;-72
2020/12/22 05:21:37;;;;;;;1.03;0.50;;;;;;;10.68;93.77;99508.25;5052280;28;20179;-73
2020/12/22 05:24:05;;;;;;;0.30;0.30;;;;;;;10.73;93.57;99497.13;5052179;28;20167;-73
2020/12/22 05:26:34;;;;;;;0.40;0.40;;;;;;;10.72;93.16;99513.88;5052032;28;20175;-73
2020/12/22 05:29:16;;;;;;;0.30;0.13;;;;;;;10.77;93.17;99512.84;5052183;28;20172;-73
2020/12/22 05:31:47;;;;;;;0.20;0.20;;;;;;;10.75;93.75;99506.94;5052254;28;20182;-72
2020/12/22 05:34:13;;;;;;;0.30;0.30;;;;;;;10.77;93.15;99513.66;5052132;28;20466;-73
2020/12/22 05:36:40;;;;;;;0.30;0.30;;;;;;;10.81;93.38;99503.63;5051805;28;20284;-72
2020/12/22 05:39:13;;;;;;;0.30;0.30;;;;;;;10.85;93.67;99501.03;5052271;28;20210;-73
2020/12/22 05:41:39;;;;;;;0.90;0.43;;;;;;;10.92;93.15;99506.75;5052501;28;20172;-72
2020/12/22 05:44:05;;;;;;;0.20;0.20;;;;;;;10.97;93.06;99512.00;5052000;28;20187;-73
2020/12/22 05:46:34;;;;;;;0.10;0.10;;;;;;;11.01;93.20;99526.63;5051772;28;20175;-73
2020/12/22 05:49:00;;;;;;;0.20;0.20;;;;;;;11.05;93.32;99513.88;5051804;28;20646;-72
2020/12/22 05:51:26;;;;;;;0.43;0.43;;;;;;;11.10;92.85;99521.03;5050937;28;20176;-73
2020/12/22 05:53:54;;;;;;;0.63;0.20;;;;;;;11.19;92.36;99514.34;5051893;28;20186;-72
2020/12/22 05:56:22;;;;;;;0.30;0.30;;;;;;;11.21;92.60;99522.22;5051669;28;20206;-72
2020/12/22 05:58:50;;;;;;;0.20;0.20;;;;;;;11.24;92.36;99532.47;5050311;28;20567;-72
2020/12/22 06:01:28;;;;;;;1.23;0.43;;;;;;;11.34;92.21;99510.16;5051566;28;20635;-71
2020/12/22 06:03:55;;;;;;;0.40;0.40;;;;;;;11.37;91.91;99512.22;5051485;28;20171;-72
2020/12/22 06:06:21;;;;;;;0.30;0.30;;;;;;;11.42;91.44;99527.59;5051328;28;20178;-72
2020/12/22 06:08:49;;;;;;;0.40;0.40;;;;;;;11.42;91.60;99513.94;5051415;28;20605;-72
2020/12/22 06:11:14;;;;;;;0.40;0.40;;;;;;;11.41;91.66;99515.06;5050029;28;20258;-72
2020/12/22 06:13:40;;;;;;;0.47;0.47;;;;;;;11.40;92.46;99513.47;5051212;28;20167;-72
2020/12/22 06:16:16;;;;;;;0.90;0.83;;;;;;;11.41;92.51;99507.66;5051280;28;20183;-73
2020/12/22 06:18:43;;;;;;;0.50;0.50;;;;;;;11.45;92.93;99521.47;5050893;28;20229;-72
2020/12/22 06:21:09;;;;;;;0.60;0.60;;;;;;;11.42;92.68;99541.28;5051129;28;20179;-73
2020/12/22 06:23:34;;;;;;;0.53;0.53;;;;;;;11.47;93.44;99513.72;5051118;28;20229;-70
2020/12/22 06:26:04;;;;;;;0.80;0.80;;;;;;;11.42;93.54;99519.41;5050993;28;20179;-73
2020/12/22 06:28:30;;;;;;;0.40;0.40;;;;;;;11.45;93.33;99521.47;5050953;28;20675;-72
2020/12/22 06:30:56;;;;;;;0.87;0.60;;;;;;;11.50;93.01;99515.78;5050960;28;20210;-72
2020/12/22 06:33:23;;;;;;;1.20;0.83;;;;;;;11.58;92.56;99512.16;5049604;28;20432;-73
2020/12/22 06:36:09;;;;;;;1.70;0.60;;;;;;;11.65;92.58;99517.03;5050975;28;20175;-72
2020/12/22 06:38:48;;;;;;;0.73;0.73;;;;;;;11.68;92.54;99514.41;5050754;28;20658;-73
2020/12/22 06:41:43;;;;;;;0.70;0.70;;;;;;;11.69;93.01;99523.44;5050838;28;20183;-72
2020/12/22 06:44:34;;;;;;;1.43;0.77;;;;;;;11.71;92.70;99518.41;5041925;28;20602;-72
2020/12/22 06:47:00;;;;;;;0.57;0.57;;;;;;;11.75;92.51;99527.56;5050327;28;20686;-72
2020/12/22 06:49:53;;;;;;;0.80;0.80;;;;;;;11.78;92.18;99527.66;5050720;28;20176;-73
2020/12/22 06:52:30;;;;;;;1.33;1.23;;;;;;;11.84;91.97;99530.97;5048857;28;20191;-73
2020/12/22 06:54:55;;;;;;;0.83;0.83;;;;;;;11.89;91.30;99548.00;5049268;28;20204;-73
2020/12/22 06:57:46;;;;;;;1.87;1.77;;;;;;;11.95;91.13;99542.28;5049232;28;20262;-72
2020/12/22 07:00:26;;;;;;;2.33;1.03;;;;;;;11.99;91.48;99533.03;5050898;28;20181;-73
2020/12/22 07:02:53;;;;;;;1.17;1.17;;;;;;;12.06;90.84;99557.13;5050303;28;20696;-72
2020/12/22 07:05:54;;;;;;;0.97;0.97;;;;;;;12.17;90.37;99537.16;5050590;28;20592;-73
2020/12/22 07:08:21;;;;;;;1.27;1.27;;;;;;;12.29;89.95;99554.69;5050363;28;20188;-72
2020/12/22 07:10:50;;;;;;;2.33;2.23;;;;;;;12.29;89.83;99563.69;5050571;28;20229;-72
2020/12/22 07:13:18;;;;;;;3.40;3.10;;;;;;;12.43;89.72;99560.59;5049422;28;20175;-73
2020/12/22 07:15:48;;;;;;;3.27;3.07;;;;;;;12.47;89.46;99559.56;5055968;28;20511;-73
2020/12/22 07:18:19;;;;;;;5.10;4.73;;;;;;;12.50;89.09;99564.38;5054719;28;20191;-72
2020/12/22 07:20:45;;;;;;;3.93;3.63;;;;;;;12.55;89.23;99557.84;5051605;28;20187;-73
2020/12/22 07:23:13;;;;;;;2.00;1.87;;;;;;;12.60;88.64;99565.03;5050826;28;20195;-73
2020/12/22 07:25:39;;;;;;;3.40;3.20;;;;;;;12.65;88.19;99571.06;5050445;28;20579;-72
2020/12/22 07:28:06;;;;;;;1.53;1.53;;;;;;;12.67;88.72;99573.47;5050699;28;20175;-73
2020/12/22 07:30:32;;;;;;;1.90;1.80;;;;;;;12.66;88.91;99580.88;5049109;28;20206;-71
2020/12/22 07:32:59;;;;;;;1.90;1.80;;;;;;;12.69;88.78;99576.66;5050406;28;20214;-72
2020/12/22 07:35:25;;;;;;;0.93;0.93;;;;;;;12.68;88.33;99586.81;5050327;28;20213;-74
2020/12/22 07:37:50;;;;;;;1.27;1.20;;;;;;;12.70;88.40;99600.16;5050565;28;20199;-73
2020/12/22 07:40:15;;;;;;;1.00;1.00;;;;;;;12.69;88.51;99596.63;5050444;28;20167;-72
2020/12/22 07:42:43;;;;;;;1.90;1.80;;;;;;;12.70;88.42;99602.91;5050319;28;20635;-73
2020/12/22 07:45:08;;;;;;;2.20;2.10;;;;;;;12.69;88.70;99606.78;5050277;28;20217;-72
2020/12/22 07:47:34;;;;;;;1.83;1.73;;;;;;;12.64;88.90;99610.56;5050029;28;20187;-72
2020/12/22 07:50:13;;;;;;;3.43;2.80;;;;;;;12.57;89.14;99615.81;5050030;28;20182;-72
2020/12/22 07:52:39;;;;;;;2.80;2.60;;;;;;;12.49;90.05;99601.13;5050185;28;20172;-72
2020/12/22 07:55:07;;;;;;;2.53;2.43;;;;;;;12.43;90.24;99613.44;5050128;28;20178;-73
2020/12/22 07:57:36;;;;;;;2.00;1.90;;;;;;;12.37;91.19;99614.84;5049979;28;20210;-73
2020/12/22 08:00:07;;;;;;;2.30;2.20;;;;;;;12.28;92.09;99619.63;5050080;28;20176;-73
2020/12/22 08:02:34;;;;;;;2.30;2.20;;;;;;;12.21;91.83;99616.66;5050104;28;20167;-73
2020/12/22 08:05:15;;;;;;;2.83;2.17;;;;;;;12.10;92.90;99630.00;5049964;28;20182;-73
2020/12/22 08:07:45;;;;;;;4.20;3.80;;;;;;;12.02;93.67;99621.91;5049853;28;20182;-73
2020/12/22 08:10:15;;;;;;;1.30;1.20;;;;;;;11.93;93.93;99629.41;5050003;28;20178;-73
2020/12/22 08:12:42;;;;;;;1.50;1.50;;;;;;;11.86;94.66;99635.44;5049908;28;20670;-74
2020/12/22 08:15:10;;;;;;;2.43;2.23;;;;;;;11.83;94.83;99614.22;5053018;28;20321;-73
2020/12/22 08:17:40;;;;;;;3.00;2.80;;;;;;;11.76;95.34;99633.13;5053397;28;20171;-73
2020/12/22 08:20:06;;;;;;;2.83;2.63;;;;;;;11.75;95.48;99637.81;5053581;28;20172;-73
2020/12/22 08:22:32;;;;;;;2.97;2.53;;;;;;;11.73;95.97;99631.88;5053652;28;20171;-76
2020/12/22 08:25:01;;;;;;;3.00;2.80;;;;;;;11.71;95.99;99631.38;5053559;28;20554;-73
2020/12/22 08:27:26;;;;;;;1.40;1.30;;;;;;;11.81;95.39;99636.47;5053190;28;20183;-72
2020/12/22 08:29:52;;;;;;;1.90;1.80;;;;;;;12.00;94.64;99638.66;5053812;28;20237;-75
2020/12/22 08:32:27;;;;;;;2.03;1.93;;;;;;;12.14;93.79;99647.34;5053572;28;20615;-75
2020/12/22 08:34:53;;;;;;;3.20;3.00;;;;;;;12.26;93.51;99643.81;5053370;28;20163;-73
2020/12/22 08:37:25;;;;;;;2.30;2.20;;;;;;;12.24;93.29;99657.06;5053141;28;20225;-73
2020/12/22 08:39:51;;;;;;;2.97;2.77;;;;;;;12.19;93.56;99643.59;5051992;28;20286;-73
2020/12/22 08:42:17;;;;;;;3.23;3.03;;;;;;;12.22;93.59;99662.09;5052289;28;20262;-76
2020/12/22 08:44:52;;;;;;;3.10;2.90;;;;;;;12.19;93.38;99669.03;5053260;28;20615;-76
2020/12/22 08:47:19;;;;;;;3.00;2.80;;;;;;;12.14;94.25;99671.97;5052798;28;20186;-76
2020/12/22 08:49:46;;;;;;;2.60;2.40;;;;;;;12.14;93.91;99684.88;5053040;28;20159;-76
2020/12/22 08:52:16;;;;;;;1.80;1.70;;;;;;;12.11;93.76;99688.31;5052909;28;20176;-76
2020/12/22 08:54:43;;;;;;;0.53;0.53;;;;;;;12.14;93.76;99682.13;5053071;28;20254;-76
2020/12/22 08:57:10;;;;;;;1.13;1.03;;;;;;;12.07;93.73;99687.38;5052630;28;20167;-75
2020/12/22 08:59:35;;;;;;;3.70;1.20;;;;;;;12.03;93.93;99698.22;5052793;28;20226;-74
2020/12/22 09:02:01;;;;;;;0.60;0.60;;;;;;;12.00;93.63;99690.66;5053068;28;20355;-75
2020/12/22 09:04:31;;;;;;;0.27;0.27;;;;;;;12.02;93.02;99701.31;5052772;28;20650;-75
2020/12/22 09:06:57;;;;;;;0.50;0.50;;;;;;;12.02;92.48;99706.78;5052458;28;20176;-75
2020/12/22 09:09:31;;;;;;;6.10;1.87;;;;;;;12.00;92.24;99714.50;5052629;28;20207;-75
2020/12/22 09:12:08;;;;;;;0.73;0.40;;;;;;;12.00;92.69;99723.53;5052578;28;20170;-75
2020/12/22 09:14:51;;;;;;;0.10;0.10;;;;;;;12.05;92.14;99720.59;5052641;28;20202;-75
2020/12/22 09:17:28;;;;;;;0.70;0.30;;;;;;;12.11;90.98;99737.59;5052324;28;20186;-75
2020/12/22 09:19:54;;;;;;;0.23;0.23;;;;;;;12.19;90.65;99745.72;5052148;28;20241;-76
2020/12/22 09:22:27;;;;;;;0.47;0.30;;;;;;;12.24;91.06;99738.41;5052387;28;20199;-75
2020/12/22 09:24:58;;;;;;;0.40;0.33;;;;;;;12.19;91.34;99747.66;5052219;28;20174;-76
2020/12/22 09:27:36;;;;;;;0.57;0.33;;;;;;;12.19;91.16;99755.88;5052092;28;20203;-76
2020/12/22 09:30:05;;;;;;;0.47;0.47;;;;;;;12.19;91.34;99758.63;5052300;28;20171;-76
2020/12/22 09:32:30;;;;;;;0.10;0.10;;;;;;;12.23;90.78;99762.28;5052143;28;20175;-76
2020/12/22 09:34:56;;;;;;;0.83;0.30;;;;;;;12.31;90.72;99750.44;5052126;28;20172;-75
2020/12/22 09:37:23;;;;;;;0.73;0.47;;;;;;;12.32;90.54;99764.94;5051871;28;20229;-76
2020/12/22 09:39:50;;;;;;;0.90;0.40;;;;;;;12.33;90.54;99759.09;5051797;28;20203;-76
2020/12/22 09:42:16;;;;;;;0.27;0.27;;;;;;;12.42;88.97;99758.97;5051971;28;20245;-75
2020/12/22 09:44:42;;;;;;;4.63;0.63;;;;;;;12.55;88.36;99755.13;5051968;28;20560;-75
2020/12/22 09:47:08;;;;;;;0.30;0.30;;;;;;;12.56;87.66;99753.19;5051562;28;20250;-75
2020/12/22 09:49:33;;;;;;;0.30;0.27;;;;;;;12.61;87.25;99752.97;5051807;28;20178;-75
2020/12/22 09:51:59;;;;;;;0.20;0.20;;;;;;;12.62;86.93;99752.63;5051801;28;20167;-73
2020/12/22 09:54:24;;;;;;;0.97;0.50;;;;;;;12.63;86.46;99751.47;5051657;28;20172;-74
2020/12/22 09:56:50;;;;;;;0.43;0.40;;;;;;;12.60;86.56;99756.84;5051777;28;20182;-73
2020/12/22 09:59:16;;;;;;;0.40;0.40;;;;;;;12.55;86.22;99757.06;5051618;28;20199;-73
2020/12/22 10:01:42;;;;;;;0.30;0.30;;;;;;;12.68;85.08;99762.22;5051571;28;20504;-73
2020/12/22 10:04:08;;;;;;;0.93;0.63;;;;;;;12.68;85.41;99772.38;5051734;28;20229;-74
2020/12/22 10:06:33;;;;;;;0.70;0.37;;;;;;;12.64;85.43;99780.50;5051634;28;20179;-73
2020/12/22 10:08:59;;;;;;;1.07;0.97;;;;;;;12.52;87.33;99775.78;5052020;28;20535;-72
2020/12/22 10:11:25;;;;;;;1.27;0.77;;;;;;;12.35;89.25;99777.94;5051316;28;20178;-73
2020/12/22 10:13:52;;;;;;;1.70;1.60;;;;;;;12.17;90.88;99783.59;5051349;28;20634;-74
2020/12/22 10:16:20;;;;;;;3.07;1.60;;;;;;;12.06;91.57;99760.53;5050913;28;20575;-74
2020/12/22 10:18:46;;;;;;;2.53;1.40;;;;;;;12.04;91.72;99764.75;5050989;28;20553;-74
2020/12/22 10:21:13;;;;;;;2.80;1.60;;;;;;;12.06;92.03;99757.78;5051219;28;20186;-75
2020/12/22 10:23:40;;;;;;;0.90;0.90;;;;;;;12.13;91.79;99763.50;5051557;28;20168;-75
2020/12/22 10:26:07;;;;;;;2.07;1.67;;;;;;;12.20;91.83;99765.69;5050907;28;20541;-74
2020/12/22 10:28:35;;;;;;;1.10;1.10;;;;;;;12.25;91.16;99764.66;5050994;28;20175;-76
2020/12/22 10:31:01;;;;;;;1.80;1.00;;;;;;;12.29;90.66;99774.59;5049495;28;20190;-75
2020/12/22 10:33:26;;;;;;;0.73;0.73;;;;;;;12.28;90.96;99772.19;5050965;28;20179;-76
2020/12/22 10:35:52;;;;;;;0.57;0.57;;;;;;;12.31;90.94;99774.28;5050882;28;20623;-74
2020/12/22 10:38:18;;;;;;;0.60;0.60;;;;;;;12.34;90.86;99777.13;5050280;28;20535;-75
2020/12/22 10:40:44;;;;;;;0.73;0.73;;;;;;;12.33;90.60;99788.44;5050905;28;20182;-76
2020/12/22 10:43:09;;;;;;;0.93;0.80;;;;;;;12.52;88.97;99784.00;5050907;28;20250;-74
2020/12/22 10:45:36;;;;;;;1.97;1.67;;;;;;;12.56;88.92;99780.59;5050746;28;20623;-75
2020/12/22 10:48:03;;;;;;;1.60;1.50;;;;;;;12.55;88.84;99781.72;5050838;28;20568;-74
2020/12/22 10:50:28;;;;;;;1.30;1.20;;;;;;;12.70;86.46;99781.06;5050739;28;20167;-75
2020/12/22 10:52:54;;;;;;;1.73;1.63;;;;;;;12.74;85.94;99790.22;5049275;28;20194;-74
2020/12/22 10:55:20;;;;;;;0.90;0.90;;;;;;;12.67;86.00;99785.28;5050407;28;20175;-75
2020/12/22 10:57:46;;;;;;;0.83;0.83;;;;;;;12.66;86.33;99794.66;5050605;28;20681;-75
2020/12/22 11:00:11;;;;;;;0.90;0.90;;;;;;;12.69;85.58;99783.00;5051100;28;20179;-74
2020/12/22 11:02:37;;;;;;;1.10;1.10;;;;;;;12.76;85.10;99809.84;5050586;28;20666;-75
2020/12/22 11:05:04;;;;;;;1.03;0.97;;;;;;;12.71;84.69;99821.81;5050749;28;20174;-74
2020/12/22 11:07:37;;;;;;;0.70;0.70;;;;;;;12.75;84.48;99806.31;5050448;28;20180;-74
2020/12/22 11:10:03;;;;;;;0.60;0.60;;;;;;;12.75;83.53;99797.28;5050687;28;20535;-75
2020/12/22 11:12:29;;;;;;;0.60;0.47;;;;;;;12.69;83.74;99810.41;5050589;28;20171;-75
2020/12/22 11:14:54;;;;;;;0.40;0.40;;;;;;;12.63;83.27;99813.72;5050406;28;20209;-76
2020/12/22 11:17:20;;;;;;;0.40;0.37;;;;;;;12.56;83.63;99824.44;5050437;28;20175;-75
2020/12/22 11:19:45;;;;;;;0.80;0.50;;;;;;;12.54;83.02;99815.75;5048785;28;20207;-74
2020/12/22 11:22:10;;;;;;;0.30;0.30;;;;;;;12.51;83.67;99815.28;5050431;28;20175;-75
2020/12/22 11:24:36;;;;;;;0.30;0.30;;;;;;;12.64;83.38;99812.56;5050413;28;20217;-74
2020/12/22 11:27:02;;;;;;;0.40;0.40;;;;;;;12.71;83.02;99823.75;5050358;28;20183;-76
2020/12/22 11:29:27;;;;;;;0.47;0.47;;;;;;;12.73;82.87;99821.47;5050750;28;20317;-75
2020/12/22 11:31:52;;;;;;;1.93;1.33;;;;;;;12.72;82.59;99823.41;5050317;28;20190;-77
2020/12/22 11:34:18;;;;;;;0.20;0.20;;;;;;;12.69;82.50;99828.78;5050239;28;20170;-75
2020/12/22 11:36:48;;;;;;;0.70;0.60;;;;;;;12.64;82.76;99832.56;5050237;28;20172;-75